• Join FlightAware (Why Join?)
  • Login
  • US Flag 
03:52AM EDT


 

Airport Tracker/Info


-or-


 

Live Flight TrackerFlight Track Log ✈ ASA6 ✈ 16-Oct-2013 ✈ KLAX - KDCA

Flight Track Log - Related Links

Times and Time Zones

All times are in EDT time to prevent confusion due to time zone crossing. See the ASA6 flight status page for this flight to view local times or setup timezone preferences in your user account.

Time Position Orientation Groundspeed Altitude Reporting Facility
EDT Latitude Longitude Course Direction KTS MPH feet Rate Location/Type
04:02PM 33.9333 -118.4464 90° East 182 209 1,700  Level Los Angeles Center
04:03PM 33.8742 -118.4856 209° Southwest 248 285 3,800 2,400 Climbing Los Angeles Center
04:05PM 33.8067 -118.4997 190° South 266 306 6,700 2,820 Climbing Los Angeles Center
04:06PM 33.7156 -118.5050 183° South 293 337 9,700 2,220 Climbing Los Angeles Center
04:07PM 33.6675 -118.4172 123° Southeast 324 373 11,300 1,380 Climbing Los Angeles Center
04:08PM 34.1862 -117.6187 90° East  Level Estimated
04:08PM 33.6417 -118.2983 105° East 376 433 12,600  Level Los Angeles Center
04:09PM 33.6444 -118.1389 89° East 407 468 15,300 2,280 Climbing Los Angeles Center
04:10PM 33.6442 -118.0000 90° East 419 482 17,400 1,800 Climbing Los Angeles Center
04:11PM 33.6439 -117.8542 90° East 436 502 19,100 1,740 Climbing Los Angeles Center
04:12PM 33.6439 -117.7031 90° East 451 519 21,100 1,800 Climbing Los Angeles Center
04:13PM 33.6428 -117.5486 90° East 462 532 22,900 1,740 Climbing Los Angeles Center
04:14PM 33.6419 -117.3589 90° East 476 548 24,700 1,500 Climbing Los Angeles Center
04:15PM 33.6400 -117.1961 91° East 488 562 26,000 1,440 Climbing Los Angeles Center
04:16PM 33.6389 -117.0328 90° East 492 566 27,700 1,500 Climbing Los Angeles Center
04:17PM 33.6367 -116.8703 91° East 491 565 29,200 1,380 Climbing Los Angeles Center
04:18PM 33.6353 -116.6883 90° East 496 571 30,600 1,440 Climbing Los Angeles Center
04:19PM 33.6333 -116.5247 91° East 490 564 32,200 1,380 Climbing Los Angeles Center
04:20PM 33.6317 -116.3619 91° East 487 560 33,500 1,080 Climbing Los Angeles Center
04:21PM 33.6314 -116.2036 90° East 476 548 34,500 900 Climbing Los Angeles Center
04:22PM 33.6625 -116.0478 76° East 478 550 35,400 900 Climbing Los Angeles Center
04:23PM 33.7169 -115.8689 70° East 475 547 36,400 720 Climbing Los Angeles Center
04:24PM 33.7633 -115.7200 69° East 477 549 37,000 240 Climbing Los Angeles Center
04:25PM 33.8092 -115.5697 70° East 478 550 37,000  Level Los Angeles Center
04:26PM 33.8542 -115.4156 71° East 486 559 37,000  Level Los Angeles Center
04:27PM 33.9014 -115.2636 69° East 485 558 37,000  Level Los Angeles Center
04:28PM 33.9472 -115.1086 70° East 490 564 37,000  Level Los Angeles Center
04:29PM 34.0025 -114.9236 70° East 490 564 37,000  Level Los Angeles Center
04:30PM 34.0494 -114.7694 70° East 490 564 37,000  Level Los Angeles Center
04:31PM 34.0969 -114.6153 70° East 489 563 37,000  Level Los Angeles Center
04:32PM 34.1406 -114.4597 71° East 489 563 37,000  Level Los Angeles Center
04:34PM 34.1869 -114.3056 70° East 490 564 37,000  Level Los Angeles Center
04:35PM 34.2428 -114.1117 71° East 497 572 37,000  Level Albuquerque Center
04:36PM 34.2878 -113.9572 71° East 493 567 37,000  Level Albuquerque Center
04:37PM 34.3322 -113.8028 71° East 490 564 37,000  Level Albuquerque Center
04:38PM 34.3772 -113.6458 71° East 490 564 37,000  Level Albuquerque Center
04:39PM 34.4311 -113.4569 71° East 495 570 37,000  Level Albuquerque Center
04:40PM 34.4767 -113.2978 71° East 493 567 37,000  Level Albuquerque Center
04:41PM 34.5200 -113.1392 72° East 498 573 37,000  Level Albuquerque Center
04:42PM 34.5639 -112.9825 71° East 497 572 37,000  Level Albuquerque Center
04:43PM 34.6069 -112.8256 72° East 496 571 37,000  Level Albuquerque Center
04:44PM 34.6508 -112.6661 71° East 500 575 37,000  Level Albuquerque Center
04:45PM 34.7033 -112.4758 71° East 501 577 37,000  Level Albuquerque Center
04:46PM 34.7381 -112.3233 74° East 504 580 37,000  Level Albuquerque Center
04:47PM 34.7769 -112.1500 75° East 506 582 37,000  Level Albuquerque Center
04:48PM 34.8142 -111.9872 74° East 505 581 37,000  Level Albuquerque Center
04:49PM 34.8514 -111.8225 75° East 508 585 37,000  Level Albuquerque Center
04:50PM 34.8956 -111.6269 75° East 508 585 37,000  Level Albuquerque Center
04:51PM 34.9336 -111.4600 74° East 509 586 37,000  Level Albuquerque Center
04:52PM 34.9694 -111.2942 75° East 507 583 37,000  Level Albuquerque Center
04:53PM 35.0050 -111.1278 75° East 507 583 37,000  Level Albuquerque Center
04:54PM 35.0419 -110.9614 75° East 507 583 37,000  Level Albuquerque Center
04:55PM 35.0811 -110.7814 75° East 507 583 37,000  Level Albuquerque Center
04:56PM 35.1231 -110.5958 75° East 508 585 37,000  Level Albuquerque Center
04:57PM 35.1561 -110.4342 76° East 511 588 37,000  Level Albuquerque Center
04:58PM 35.1956 -110.2450 76° East 514 592 37,000  Level Albuquerque Center
04:59PM 35.2311 -110.0828 75° East 516 594 37,000  Level Albuquerque Center
05:00PM 35.2714 -109.8925 75° East 518 596 37,000  Level Albuquerque Center
05:02PM 35.3036 -109.7253 77° East 524 603 37,000  Level Albuquerque Center
05:03PM 35.3428 -109.5347 76° East 522 601 37,000  Level Albuquerque Center
05:04PM 35.3767 -109.3711 76° East 519 597 37,000  Level Albuquerque Center
05:05PM 35.4144 -109.1817 76° East 516 594 37,000  Level Albuquerque Center
05:06PM 35.4469 -109.0214 76° East 512 589 37,000  Level Albuquerque Center
05:07PM 35.4844 -108.8339 76° East 510 587 37,000  Level Albuquerque Center
05:08PM 35.5167 -108.6742 76° East 509 586 37,000  Level Albuquerque Center
05:09PM 35.5539 -108.4878 76° East 507 583 37,000  Level Albuquerque Center
05:10PM 35.5797 -108.3256 79° East 509 586 37,000  Level Albuquerque Center
05:11PM 35.6022 -108.1325 82° East 511 588 37,000  Level Albuquerque Center
05:12PM 35.6217 -107.9661 82° East 515 593 37,000  Level Albuquerque Center
05:13PM 35.6456 -107.7725 81° East 514 592 37,000  Level Albuquerque Center
05:14PM 35.6658 -107.6061 81° East 515 593 37,000  Level Albuquerque Center
05:15PM 35.6861 -107.4361 82° East 521 600 37,000  Level Albuquerque Center
05:16PM 35.7106 -107.2356 81° East 528 608 37,000  Level Albuquerque Center
05:17PM 35.7311 -107.0619 82° East 535 616 37,000  Level Albuquerque Center
05:18PM 35.7539 -106.8600 82° East 534 615 37,000  Level Albuquerque Center
05:19PM 35.7719 -106.6867 83° East 536 617 37,000  Level Albuquerque Center
05:20PM 35.7956 -106.4864 82° East 539 620 37,000  Level Albuquerque Center
05:21PM 35.8158 -106.2856 83° East 547 629 37,000  Level Albuquerque Center
05:22PM 35.8372 -106.1344 80° East 538 619 37,000  Level Albuquerque Center
05:23PM 35.8614 -105.9128 82° East 541 623 37,000  Level Albuquerque Center
05:24PM 35.8783 -105.7258 84° East 546 628 37,000  Level Albuquerque Center
05:25PM 35.9000 -105.5219 82° East 545 627 37,000  Level Albuquerque Center
05:26PM 35.9239 -105.3358 81° East 544 626 37,000  Level Albuquerque Center
05:27PM 35.9586 -105.1517 77° East 544 626 37,000  Level Albuquerque Center
05:28PM 35.9928 -104.9678 77° East 544 626 37,000  Level Albuquerque Center
05:29PM 36.0244 -104.7853 78° East 540 621 37,000  Level Albuquerque Center
05:30PM 36.0569 -104.6017 78° East 538 619 37,000  Level Albuquerque Center
05:31PM 36.0897 -104.4156 78° East 544 626 37,000  Level Albuquerque Center
05:33PM 36.1217 -104.2311 78° East 542 624 37,000  Level Albuquerque Center
05:34PM 36.1544 -104.0483 77° East 540 621 37,000  Level Albuquerque Center
05:35PM 36.1908 -103.8311 78° East 543 625 37,000  Level Albuquerque Center
05:36PM 36.2217 -103.6450 78° East 546 628 37,000  Level Albuquerque Center
05:37PM 36.2519 -103.4581 79° East 547 629 37,000  Level Albuquerque Center
05:38PM 36.2844 -103.2728 78° East 546 628 37,000  Level Albuquerque Center
05:39PM 36.3131 -103.0856 79° East 547 629 37,000  Level Albuquerque Center
05:40PM 36.3442 -102.8981 78° East 548 631 37,000  Level Albuquerque Center
05:41PM 36.3719 -102.7236 79° East 547 629 37,000  Level Albuquerque Center
05:42PM 36.4067 -102.5028 79° East 544 626 37,000  Level Albuquerque Center
05:43PM 36.4350 -102.3194 79° East 542 624 37,000  Level Albuquerque Center
05:44PM 36.4644 -102.1358 79° East 542 624 37,000  Level Albuquerque Center
05:45PM 36.4919 -101.9517 79° East 542 624 37,000  Level Albuquerque Center
05:46PM 36.5197 -101.7661 79° East 544 626 37,000  Level Albuquerque Center
05:47PM 36.5533 -101.5503 79° East 548 631 37,000  Level Albuquerque Center
05:48PM 36.5789 -101.3703 80° East 552 635 37,000  Level Albuquerque Center
05:49PM 36.6011 -101.2169 80° East 557 641 37,000  Level Kansas City Center
05:50PM 36.6278 -101.0336 80° East 562 647 37,000  Level Kansas City Center
05:51PM 36.6586 -100.8183 80° East 566 651 37,000  Level Kansas City Center
05:52PM 36.6847 -100.6336 80° East 567 652 37,000  Level Kansas City Center
05:53PM 36.7144 -100.4194 80° East 566 651 37,000  Level Kansas City Center
05:54PM 36.7400 -100.2336 80° East 569 655 37,000  Level Kansas City Center
05:55PM 36.7686 -100.0300 80° East 567 652 37,000  Level Kansas City Center
05:56PM 36.7944 -99.8350 81° East 567 652 37,000  Level Kansas City Center
05:57PM 36.8197 -99.6408 81° East 566 651 37,000  Level Kansas City Center
05:58PM 36.8461 -99.4456 80° East 566 651 37,000  Level Kansas City Center
05:59PM 36.8764 -99.2083 81° East 571 657 37,000  Level Kansas City Center
06:00PM 36.9008 -99.0108 81° East 571 657 37,000  Level Kansas City Center
06:01PM 36.9256 -98.8133 81° East 572 658 37,000  Level Kansas City Center
06:02PM 36.9492 -98.6150 81° East 572 658 37,000  Level Kansas City Center
06:03PM 36.9733 -98.4194 81° East 570 656 37,000  Level Kansas City Center
06:04PM 36.9997 -98.1997 81° East 570 656 37,000  Level Kansas City Center
06:05PM 37.0225 -98.0064 82° East 568 654 37,000  Level Kansas City Center
06:06PM 37.0450 -97.8119 82° East 568 654 37,000  Level Kansas City Center
06:07PM 37.0681 -97.6142 82° East 573 659 37,000  Level Kansas City Center
06:08PM 37.0906 -97.4167 82° East 576 663 37,000  Level Kansas City Center
06:09PM 37.1128 -97.2214 82° East 574 661 37,000  Level Kansas City Center
06:11PM 37.1361 -96.9903 83° East 566 651 37,000  Level Kansas City Center
06:12PM 37.1575 -96.7933 82° East 570 656 37,000  Level Kansas City Center
06:13PM 37.1794 -96.5967 82° East 572 658 37,000  Level Kansas City Center
06:14PM 37.2028 -96.3850 82° East 574 661 37,000  Level Kansas City Center
06:15PM 37.2231 -96.1867 83° East 572 658 37,000  Level Kansas City Center
06:16PM 37.2428 -95.9869 83° East 572 658 37,000  Level Kansas City Center
06:17PM 37.2619 -95.7864 83° East 574 661 37,000  Level Kansas City Center
06:18PM 37.2819 -95.5847 83° East 576 663 37,000  Level Kansas City Center
06:19PM 37.3036 -95.3439 83° East 575 662 37,000  Level Kansas City Center
06:20PM 37.3231 -95.1433 83° East 574 661 37,000  Level Kansas City Center
06:21PM 37.3417 -94.9414 83° East 578 665 37,000  Level Kansas City Center
06:22PM 37.3589 -94.7425 84° East 573 659 37,000  Level Kansas City Center
06:23PM 37.3781 -94.5425 83° East 573 659 37,000  Level Kansas City Center
06:24PM 37.3964 -94.3433 83° East 571 657 37,000  Level Kansas City Center
06:25PM 37.4122 -94.1433 84° East 573 659 37,000  Level Kansas City Center
06:26PM 37.4311 -93.9092 84° East 574 661 37,000  Level Kansas City Center
06:27PM 37.4475 -93.7106 84° East 572 658 37,000  Level Kansas City Center
06:28PM 37.4625 -93.5119 85° East 570 656 37,000  Level Kansas City Center
06:29PM 37.4781 -93.3136 84° East 569 655 37,000  Level Kansas City Center
06:30PM 37.4925 -93.1153 85° East 569 655 37,000  Level Kansas City Center
06:31PM 37.5108 -92.8797 84° East 566 651 37,000  Level Kansas City Center
06:32PM 37.5236 -92.6817 85° East 568 654 37,000  Level Kansas City Center
06:33PM 37.5378 -92.4839 85° East 569 655 37,000  Level Kansas City Center
06:34PM 37.5497 -92.2883 86° East 566 651 37,000  Level Kansas City Center
06:35PM 37.5644 -92.0917 85° East 567 652 37,000  Level Kansas City Center
06:36PM 37.5778 -91.8956 85° East 566 651 37,000  Level Kansas City Center
06:37PM 37.5925 -91.6603 85° East 564 649 37,000  Level Kansas City Center
06:38PM 37.6050 -91.4617 85° East 566 651 37,000  Level Kansas City Center
06:39PM 37.6172 -91.2650 85° East 566 651 37,000  Level Kansas City Center
06:41PM 37.6292 -91.0536 86° East 565 650 37,000  Level Kansas City Center
06:42PM 37.6406 -90.8589 86° East 563 648 37,000  Level Kansas City Center
06:43PM 37.6500 -90.6628 86° East 563 648 37,000  Level Kansas City Center
06:44PM 37.6611 -90.4675 86° East 562 647 37,000  Level Kansas City Center
06:45PM 37.6714 -90.2725 86° East 563 648 37,000  Level Kansas City Center
06:46PM 37.6828 -90.0372 86° East 563 648 37,000  Level Kansas City Center
06:47PM 37.6925 -89.8417 86° East 563 648 37,000  Level Kansas City Center
06:48PM 37.7014 -89.6444 87° East 564 649 37,000  Level Kansas City Center
06:49PM 37.7100 -89.4497 87° East 563 648 37,000  Level Kansas City Center
06:50PM 37.7183 -89.2528 87° East 562 647 37,000  Level Kansas City Center
06:51PM 37.7272 -89.0181 87° East 559 643 37,000  Level Kansas City Center
06:52PM 37.7350 -88.8217 87° East 559 643 37,000  Level Kansas City Center
06:53PM 37.7419 -88.6372 87° East 556 640 37,000  Level Kansas City Center
06:54PM 37.7483 -88.4417 88° East 555 639 37,000  Level Kansas City Center
06:55PM 37.7550 -88.2858 87° East 556 640 37,000  Level Indianapolis Center
06:56PM 37.7614 -88.0908 88° East 556 640 37,000  Level Indianapolis Center
06:57PM 37.7681 -87.8950 87° East 557 641 37,000  Level Indianapolis Center
06:58PM 37.7731 -87.6994 88° East 555 639 37,000  Level Indianapolis Center
06:59PM 37.7786 -87.5028 88° East 555 639 37,000  Level Indianapolis Center
07:00PM 37.7844 -87.2733 88° East 555 639 37,000  Level Indianapolis Center
07:01PM 37.7886 -87.0789 88° East 557 641 37,000  Level Indianapolis Center
07:02PM 37.7933 -86.8847 88° East 556 640 37,000  Level Indianapolis Center
07:03PM 37.7975 -86.6931 88° East 550 633 37,000  Level Indianapolis Center
07:04PM 37.8019 -86.4847 88° East 556 640 37,000  Level Indianapolis Center
07:05PM 37.8061 -86.2875 88° East 554 638 37,000  Level Indianapolis Center
07:06PM 37.8081 -86.0692 89° East 556 640 37,000  Level Indianapolis Center
07:07PM 37.8114 -85.8714 89° East 560 644 37,000  Level Indianapolis Center
07:08PM 37.8150 -85.6742 89° East 561 646 37,000  Level Indianapolis Center
07:09PM 37.8169 -85.4669 89° East 556 640 37,000  Level Indianapolis Center
07:10PM 37.8181 -85.2731 90° East 553 636 37,000  Level Indianapolis Center
07:11PM 37.8203 -85.0769 89° East 555 639 37,000  Level Indianapolis Center
07:12PM 37.8200 -84.8811 90° East 555 639 37,000  Level Indianapolis Center
07:13PM 37.8206 -84.6875 90° East 553 636 37,000  Level Indianapolis Center
07:14PM 37.8219 -84.4594 89° East 554 638 37,000  Level Indianapolis Center
07:15PM 37.8214 -84.2642 90° East 554 638 37,000  Level Indianapolis Center
07:16PM 37.8217 -84.0686 90° East 554 638 37,000  Level Indianapolis Center
07:17PM 37.8214 -83.8717 90° East 557 641 37,000  Level Indianapolis Center
07:18PM 37.8211 -83.6742 90° East 559 643 37,000  Level Indianapolis Center
07:19PM 37.8203 -83.4772 90° East 557 641 37,000  Level Indianapolis Center
07:20PM 37.8178 -83.2789 91° East 559 643 37,000  Level Indianapolis Center
07:21PM 37.8167 -83.0803 90° East 561 646 37,000  Level Indianapolis Center
07:22PM 37.8150 -82.8486 90° East 561 646 37,000  Level Indianapolis Center
07:23PM 37.8117 -82.6564 91° East 548 631 37,000  Level Indianapolis Center
07:25PM 37.8081 -82.4603 91° East 554 638 37,000  Level Indianapolis Center
07:26PM 37.8044 -82.2639 91° East 555 639 37,000  Level Indianapolis Center
07:27PM 37.8022 -82.0725 91° East 547 629 37,000  Level Indianapolis Center
07:28PM 37.7989 -81.8792 91° East 548 631 37,000  Level Indianapolis Center
07:29PM 37.7942 -81.6844 92° East 552 635 37,000  Level Indianapolis Center
07:30PM 37.7886 -81.4636 92° East 555 639 37,000  Level Indianapolis Center
07:31PM 37.7836 -81.2758 92° East 552 635 37,000  Level Indianapolis Center
07:32PM 37.7953 -81.0906 85° East 547 629 37,000  Level Indianapolis Center
07:33PM 37.8619 -80.8947 67° East 536 617 37,000  Level Indianapolis Center
07:34PM 37.9225 -80.7217 66° East 539 620 37,000 -120 Level Indianapolis Center
07:35PM 37.9811 -80.5461 67° East 542 624 36,800 -540 Descending Indianapolis Center
07:35PM 38.0047 -80.4806 65° Northeast 536 617 36,200 -1,500 Descending Washington Center
07:36PM 38.0642 -80.3022 67° East 536 617 34,600 -1,140 Descending Washington Center
07:37PM 38.1278 -80.1108 67° East 536 617 34,000 -300 Descending Washington Center
07:38PM 38.1819 -79.9425 68° East 531 611 34,000 -240 Level Washington Center
07:39PM 38.2381 -79.7714 67° East 526 605 33,600 -660 Descending Washington Center
07:40PM 38.2964 -79.5947 67° East 526 605 32,700 -960 Descending Washington Center
07:41PM 38.3500 -79.4228 68° East 526 605 31,700 -1,020 Descending Washington Center
07:42PM 38.4006 -79.2664 68° East 526 605 30,700 -1,620 Descending Washington Center
07:43PM 38.4536 -79.0967 68° East 526 605 28,600 -2,160 Descending Washington Center
07:44PM 38.4919 -78.9208 74° East 520 598 26,400 -2,400 Descending Washington Center
07:45PM 38.5200 -78.7336 79° East 504 580 23,900 -1,920 Descending Washington Center
07:46PM 38.5450 -78.5700 79° East 482 555 22,700 -1,620 Descending Washington Center
07:47PM 38.5697 -78.4144 78° East 459 528 20,700 -2,040 Descending Washington Center
07:48PM 38.5961 -78.2639 77° East 443 510 18,600 -2,100 Descending Washington Center
07:49PM 38.6367 -78.1219 70° East 424 488 16,500 -2,100 Descending Washington Center
07:50PM 38.6811 -77.9906 67° East 413 475 14,500 -1,800 Descending Washington Center
07:51PM 38.7211 -77.8614 68° East 403 464 13,100 -1,260 Descending Washington Center
07:52PM 38.7769 -77.7619 54° Northeast 366 421 12,000 -1,200 Descending Washington Center
07:53PM 38.8306 -77.6914 46° Northeast 329 379 10,700 -1,380 Descending Washington Center
07:54PM 38.8903 -77.5997 50° Northeast 310 357 9,300 -1,320 Descending Washington Center
07:55PM 38.9500 -77.5000 52° Northeast 289 333 8,000 -1,020 Descending Potomac TRACON
07:56PM 38.9833 -77.4167 63° Northeast 268 308 7,200 -960 Descending Potomac TRACON
07:57PM 39.0000 -77.3333 76° East 243 280 6,100 -1,200 Descending Potomac TRACON
07:58PM 39.0333 -77.2500 63° Northeast 209 241 4,800 -1,140 Descending Potomac TRACON
07:59PM 39.0000 -77.2000 131° Southeast 176 203 3,800 -900 Descending Potomac TRACON
08:00PM 38.9667 -77.1667 142° Southeast 173 199 3,100 -900 Descending Potomac TRACON
08:01PM 38.9500 -77.1333 123° Southeast 161 185 2,200 -900 Descending Potomac TRACON
08:02PM 38.9000 -77.0833 142° Southeast 152 175 1,300 -780 Descending Potomac TRACON
08:03PM 38.8833 -77.0500 123° Southeast 138 159 700 -720 Descending Potomac TRACON
08:05PM 38.8519 -77.0377 180° South  Level Estimated
08:12PM 38.8500 -77.0333 North  Level FlightAware Approximate
08:13PM 38.8519 -77.0377 North  Level Estimated
08:14PM 38.8500 -77.0333 North  Level FlightAware Approximate
08:15PM 38.8519 -77.0377 North  Level Estimated